sensor_id;sensor_type;location;lat;lon;timestamp;P1;durP1;ratioP1;P2;durP2;ratioP2
2474;SDS011;1248;48.694;10.160;2022-10-16T00:00:47;10.73;;;7.57;;
2474;SDS011;1248;48.694;10.160;2022-10-16T00:03:14;10.67;;;6.93;;
2474;SDS011;1248;48.694;10.160;2022-10-16T00:05:41;17.13;;;8.40;;
2474;SDS011;1248;48.694;10.160;2022-10-16T00:08:10;15.50;;;8.37;;
2474;SDS011;1248;48.694;10.160;2022-10-16T00:10:38;11.23;;;8.80;;
2474;SDS011;1248;48.694;10.160;2022-10-16T00:13:06;18.03;;;8.13;;
2474;SDS011;1248;48.694;10.160;2022-10-16T00:15:33;10.60;;;7.47;;
2474;SDS011;1248;48.694;10.160;2022-10-16T00:18:02;10.77;;;8.17;;
2474;SDS011;1248;48.694;10.160;2022-10-16T00:20:30;18.93;;;8.50;;
2474;SDS011;1248;48.694;10.160;2022-10-16T00:22:59;14.07;;;9.47;;
2474;SDS011;1248;48.694;10.160;2022-10-16T00:25:26;13.33;;;8.03;;
2474;SDS011;1248;48.694;10.160;2022-10-16T00:27:53;10.90;;;8.40;;
2474;SDS011;1248;48.694;10.160;2022-10-16T00:30:21;12.00;;;8.27;;
2474;SDS011;1248;48.694;10.160;2022-10-16T00:32:48;13.40;;;7.90;;
2474;SDS011;1248;48.694;10.160;2022-10-16T00:35:16;12.00;;;8.20;;
2474;SDS011;1248;48.694;10.160;2022-10-16T00:37:43;11.27;;;8.40;;
2474;SDS011;1248;48.694;10.160;2022-10-16T00:40:10;13.77;;;9.03;;
2474;SDS011;1248;48.694;10.160;2022-10-16T00:42:37;15.53;;;8.13;;
2474;SDS011;1248;48.694;10.160;2022-10-16T00:45:04;12.03;;;8.30;;
2474;SDS011;1248;48.694;10.160;2022-10-16T00:47:34;12.47;;;8.17;;
2474;SDS011;1248;48.694;10.160;2022-10-16T00:50:05;11.03;;;7.93;;
2474;SDS011;1248;48.694;10.160;2022-10-16T00:52:34;10.43;;;8.13;;
2474;SDS011;1248;48.694;10.160;2022-10-16T00:55:02;9.20;;;8.23;;
2474;SDS011;1248;48.694;10.160;2022-10-16T00:57:30;11.60;;;8.10;;
2474;SDS011;1248;48.694;10.160;2022-10-16T00:59:57;15.13;;;6.93;;
2474;SDS011;1248;48.694;10.160;2022-10-16T01:02:24;10.33;;;8.30;;
2474;SDS011;1248;48.694;10.160;2022-10-16T01:04:53;9.20;;;7.97;;
2474;SDS011;1248;48.694;10.160;2022-10-16T01:07:25;11.30;;;7.90;;
2474;SDS011;1248;48.694;10.160;2022-10-16T01:10:00;11.80;;;8.03;;
2474;SDS011;1248;48.694;10.160;2022-10-16T01:12:33;10.80;;;7.50;;
2474;SDS011;1248;48.694;10.160;2022-10-16T01:15:07;9.17;;;6.47;;
2474;SDS011;1248;48.694;10.160;2022-10-16T01:17:38;9.57;;;6.23;;
2474;SDS011;1248;48.694;10.160;2022-10-16T01:20:11;9.60;;;5.90;;
2474;SDS011;1248;48.694;10.160;2022-10-16T01:22:47;9.73;;;5.23;;
2474;SDS011;1248;48.694;10.160;2022-10-16T01:25:22;7.30;;;6.03;;
2474;SDS011;1248;48.694;10.160;2022-10-16T01:27:55;10.37;;;6.30;;
2474;SDS011;1248;48.694;10.160;2022-10-16T01:30:24;10.07;;;6.00;;
2474;SDS011;1248;48.694;10.160;2022-10-16T01:32:55;9.47;;;5.70;;
2474;SDS011;1248;48.694;10.160;2022-10-16T01:35:25;10.40;;;5.70;;
2474;SDS011;1248;48.694;10.160;2022-10-16T01:37:55;6.00;;;4.50;;
2474;SDS011;1248;48.694;10.160;2022-10-16T01:40:26;7.47;;;5.87;;
2474;SDS011;1248;48.694;10.160;2022-10-16T01:42:57;8.10;;;5.77;;
2474;SDS011;1248;48.694;10.160;2022-10-16T01:45:26;6.33;;;5.00;;
2474;SDS011;1248;48.694;10.160;2022-10-16T01:47:55;10.03;;;5.57;;
2474;SDS011;1248;48.694;10.160;2022-10-16T01:50:22;7.83;;;5.30;;
2474;SDS011;1248;48.694;10.160;2022-10-16T01:52:51;9.40;;;4.80;;
2474;SDS011;1248;48.694;10.160;2022-10-16T01:55:20;5.93;;;4.33;;
2474;SDS011;1248;48.694;10.160;2022-10-16T01:57:53;8.40;;;4.70;;
2474;SDS011;1248;48.694;10.160;2022-10-16T02:00:23;6.20;;;4.27;;
2474;SDS011;1248;48.694;10.160;2022-10-16T02:02:51;10.30;;;5.50;;
2474;SDS011;1248;48.694;10.160;2022-10-16T02:05:22;15.67;;;4.67;;
2474;SDS011;1248;48.694;10.160;2022-10-16T02:07:52;13.17;;;5.60;;
2474;SDS011;1248;48.694;10.160;2022-10-16T02:10:19;8.23;;;4.97;;
2474;SDS011;1248;48.694;10.160;2022-10-16T02:12:48;12.10;;;4.43;;
2474;SDS011;1248;48.694;10.160;2022-10-16T02:15:18;8.00;;;4.37;;
2474;SDS011;1248;48.694;10.160;2022-10-16T02:17:46;7.63;;;5.00;;
2474;SDS011;1248;48.694;10.160;2022-10-16T02:20:13;11.87;;;5.20;;
2474;SDS011;1248;48.694;10.160;2022-10-16T02:22:40;8.43;;;5.30;;
2474;SDS011;1248;48.694;10.160;2022-10-16T02:25:11;20.27;;;5.73;;
2474;SDS011;1248;48.694;10.160;2022-10-16T02:27:44;18.50;;;6.87;;
2474;SDS011;1248;48.694;10.160;2022-10-16T02:30:14;20.87;;;7.77;;
2474;SDS011;1248;48.694;10.160;2022-10-16T02:32:46;10.43;;;6.43;;
2474;SDS011;1248;48.694;10.160;2022-10-16T02:35:15;17.27;;;7.50;;
2474;SDS011;1248;48.694;10.160;2022-10-16T02:37:43;8.33;;;6.13;;
2474;SDS011;1248;48.694;10.160;2022-10-16T02:40:10;13.37;;;7.43;;
2474;SDS011;1248;48.694;10.160;2022-10-16T02:42:38;14.93;;;7.93;;
2474;SDS011;1248;48.694;10.160;2022-10-16T02:45:07;13.00;;;7.17;;
2474;SDS011;1248;48.694;10.160;2022-10-16T02:47:35;9.53;;;7.00;;
2474;SDS011;1248;48.694;10.160;2022-10-16T02:50:04;9.50;;;7.23;;
2474;SDS011;1248;48.694;10.160;2022-10-16T02:52:32;11.17;;;6.87;;
2474;SDS011;1248;48.694;10.160;2022-10-16T02:54:59;12.30;;;7.57;;
2474;SDS011;1248;48.694;10.160;2022-10-16T02:57:26;9.43;;;5.97;;
2474;SDS011;1248;48.694;10.160;2022-10-16T02:59:53;10.20;;;6.00;;
2474;SDS011;1248;48.694;10.160;2022-10-16T03:02:20;11.47;;;6.40;;
2474;SDS011;1248;48.694;10.160;2022-10-16T03:04:47;11.30;;;6.83;;
2474;SDS011;1248;48.694;10.160;2022-10-16T03:07:16;24.97;;;7.90;;
2474;SDS011;1248;48.694;10.160;2022-10-16T03:09:43;12.93;;;7.93;;
2474;SDS011;1248;48.694;10.160;2022-10-16T03:12:10;19.90;;;7.50;;
2474;SDS011;1248;48.694;10.160;2022-10-16T03:14:37;10.10;;;6.73;;
2474;SDS011;1248;48.694;10.160;2022-10-16T03:17:05;20.40;;;7.37;;
2474;SDS011;1248;48.694;10.160;2022-10-16T03:19:33;16.27;;;7.70;;
2474;SDS011;1248;48.694;10.160;2022-10-16T03:22:00;12.03;;;6.67;;
2474;SDS011;1248;48.694;10.160;2022-10-16T03:24:28;10.00;;;5.70;;
2474;SDS011;1248;48.694;10.160;2022-10-16T03:26:55;12.70;;;5.63;;
2474;SDS011;1248;48.694;10.160;2022-10-16T03:29:23;9.03;;;5.67;;
2474;SDS011;1248;48.694;10.160;2022-10-16T03:31:51;8.87;;;6.30;;
2474;SDS011;1248;48.694;10.160;2022-10-16T03:34:18;16.23;;;5.63;;
2474;SDS011;1248;48.694;10.160;2022-10-16T03:36:45;10.90;;;4.57;;
2474;SDS011;1248;48.694;10.160;2022-10-16T03:39:12;8.97;;;4.63;;
2474;SDS011;1248;48.694;10.160;2022-10-16T03:41:41;9.60;;;5.03;;
2474;SDS011;1248;48.694;10.160;2022-10-16T03:44:08;9.83;;;6.27;;
2474;SDS011;1248;48.694;10.160;2022-10-16T03:46:35;8.33;;;5.00;;
2474;SDS011;1248;48.694;10.160;2022-10-16T03:49:02;10.63;;;5.47;;
2474;SDS011;1248;48.694;10.160;2022-10-16T03:51:29;14.23;;;4.93;;
2474;SDS011;1248;48.694;10.160;2022-10-16T03:53:56;13.53;;;6.73;;
2474;SDS011;1248;48.694;10.160;2022-10-16T03:56:23;8.93;;;5.93;;
2474;SDS011;1248;48.694;10.160;2022-10-16T03:58:51;14.23;;;6.63;;
2474;SDS011;1248;48.694;10.160;2022-10-16T04:01:19;11.20;;;6.80;;
2474;SDS011;1248;48.694;10.160;2022-10-16T04:03:46;10.33;;;7.40;;
2474;SDS011;1248;48.694;10.160;2022-10-16T04:06:13;13.20;;;7.40;;
2474;SDS011;1248;48.694;10.160;2022-10-16T04:08:41;9.57;;;6.40;;
2474;SDS011;1248;48.694;10.160;2022-10-16T04:11:09;12.50;;;6.90;;
2474;SDS011;1248;48.694;10.160;2022-10-16T04:13:36;13.87;;;6.60;;
2474;SDS011;1248;48.694;10.160;2022-10-16T04:16:04;19.30;;;8.70;;
2474;SDS011;1248;48.694;10.160;2022-10-16T04:18:32;10.60;;;7.17;;
2474;SDS011;1248;48.694;10.160;2022-10-16T04:21:01;9.03;;;7.63;;
2474;SDS011;1248;48.694;10.160;2022-10-16T04:23:29;16.77;;;7.13;;
2474;SDS011;1248;48.694;10.160;2022-10-16T04:25:56;12.20;;;6.70;;
2474;SDS011;1248;48.694;10.160;2022-10-16T04:28:23;12.50;;;5.57;;
2474;SDS011;1248;48.694;10.160;2022-10-16T04:30:50;10.10;;;5.87;;
2474;SDS011;1248;48.694;10.160;2022-10-16T04:33:19;8.93;;;6.40;;
2474;SDS011;1248;48.694;10.160;2022-10-16T04:35:46;9.20;;;6.30;;
2474;SDS011;1248;48.694;10.160;2022-10-16T04:38:13;10.63;;;7.10;;
2474;SDS011;1248;48.694;10.160;2022-10-16T04:40:41;6.47;;;5.87;;
2474;SDS011;1248;48.694;10.160;2022-10-16T04:43:08;14.47;;;7.30;;
2474;SDS011;1248;48.694;10.160;2022-10-16T04:45:36;11.83;;;6.83;;
2474;SDS011;1248;48.694;10.160;2022-10-16T04:48:03;10.10;;;6.90;;
2474;SDS011;1248;48.694;10.160;2022-10-16T04:50:31;7.90;;;7.00;;
2474;SDS011;1248;48.694;10.160;2022-10-16T04:52:58;10.53;;;7.10;;
2474;SDS011;1248;48.694;10.160;2022-10-16T04:55:26;12.30;;;7.53;;
2474;SDS011;1248;48.694;10.160;2022-10-16T04:57:53;17.83;;;7.27;;
2474;SDS011;1248;48.694;10.160;2022-10-16T05:00:20;10.60;;;6.00;;
2474;SDS011;1248;48.694;10.160;2022-10-16T05:02:49;11.13;;;6.00;;
2474;SDS011;1248;48.694;10.160;2022-10-16T05:05:16;11.30;;;5.60;;
2474;SDS011;1248;48.694;10.160;2022-10-16T05:07:46;7.80;;;6.37;;
2474;SDS011;1248;48.694;10.160;2022-10-16T05:10:13;14.70;;;6.80;;
2474;SDS011;1248;48.694;10.160;2022-10-16T05:12:40;8.87;;;7.20;;
2474;SDS011;1248;48.694;10.160;2022-10-16T05:15:08;9.27;;;6.50;;
2474;SDS011;1248;48.694;10.160;2022-10-16T05:17:35;10.20;;;6.50;;
2474;SDS011;1248;48.694;10.160;2022-10-16T05:20:03;6.67;;;5.80;;
2474;SDS011;1248;48.694;10.160;2022-10-16T05:22:31;8.30;;;5.60;;
2474;SDS011;1248;48.694;10.160;2022-10-16T05:24:59;7.40;;;5.50;;
2474;SDS011;1248;48.694;10.160;2022-10-16T05:27:26;6.77;;;6.07;;
2474;SDS011;1248;48.694;10.160;2022-10-16T05:29:53;14.60;;;8.50;;
2474;SDS011;1248;48.694;10.160;2022-10-16T05:32:21;13.03;;;6.70;;
2474;SDS011;1248;48.694;10.160;2022-10-16T05:34:48;7.80;;;5.90;;
2474;SDS011;1248;48.694;10.160;2022-10-16T05:37:15;9.80;;;5.60;;
2474;SDS011;1248;48.694;10.160;2022-10-16T05:39:42;9.60;;;5.67;;
2474;SDS011;1248;48.694;10.160;2022-10-16T05:42:10;13.07;;;6.37;;
2474;SDS011;1248;48.694;10.160;2022-10-16T05:44:37;9.13;;;6.77;;
2474;SDS011;1248;48.694;10.160;2022-10-16T05:47:04;8.23;;;5.40;;
2474;SDS011;1248;48.694;10.160;2022-10-16T05:49:31;7.83;;;6.13;;
2474;SDS011;1248;48.694;10.160;2022-10-16T05:51:58;10.83;;;6.10;;
2474;SDS011;1248;48.694;10.160;2022-10-16T05:54:25;9.73;;;6.10;;
2474;SDS011;1248;48.694;10.160;2022-10-16T05:56:52;8.70;;;5.97;;
2474;SDS011;1248;48.694;10.160;2022-10-16T05:59:21;10.00;;;6.20;;
2474;SDS011;1248;48.694;10.160;2022-10-16T06:01:48;11.50;;;6.60;;
2474;SDS011;1248;48.694;10.160;2022-10-16T06:04:15;9.40;;;6.97;;
2474;SDS011;1248;48.694;10.160;2022-10-16T06:06:42;9.13;;;5.93;;
2474;SDS011;1248;48.694;10.160;2022-10-16T06:09:09;8.20;;;6.67;;
2474;SDS011;1248;48.694;10.160;2022-10-16T06:11:36;11.27;;;6.50;;
2474;SDS011;1248;48.694;10.160;2022-10-16T06:14:03;8.37;;;7.03;;
2474;SDS011;1248;48.694;10.160;2022-10-16T06:16:33;9.13;;;7.53;;
2474;SDS011;1248;48.694;10.160;2022-10-16T06:19:01;13.97;;;8.50;;
2474;SDS011;1248;48.694;10.160;2022-10-16T06:21:31;9.33;;;7.97;;
2474;SDS011;1248;48.694;10.160;2022-10-16T06:23:59;8.00;;;7.17;;
2474;SDS011;1248;48.694;10.160;2022-10-16T06:26:27;11.63;;;7.30;;
2474;SDS011;1248;48.694;10.160;2022-10-16T06:28:55;11.03;;;7.03;;
2474;SDS011;1248;48.694;10.160;2022-10-16T06:31:25;11.13;;;7.30;;
2474;SDS011;1248;48.694;10.160;2022-10-16T06:33:56;10.30;;;6.60;;
2474;SDS011;1248;48.694;10.160;2022-10-16T06:36:24;11.87;;;6.93;;
2474;SDS011;1248;48.694;10.160;2022-10-16T06:38:51;9.47;;;6.93;;
2474;SDS011;1248;48.694;10.160;2022-10-16T06:41:19;9.87;;;7.17;;
2474;SDS011;1248;48.694;10.160;2022-10-16T06:43:47;11.30;;;7.70;;
2474;SDS011;1248;48.694;10.160;2022-10-16T06:46:15;13.47;;;7.07;;
2474;SDS011;1248;48.694;10.160;2022-10-16T06:48:43;10.43;;;6.63;;
2474;SDS011;1248;48.694;10.160;2022-10-16T06:51:12;13.40;;;7.60;;
2474;SDS011;1248;48.694;10.160;2022-10-16T06:53:41;9.57;;;6.80;;
2474;SDS011;1248;48.694;10.160;2022-10-16T06:56:09;10.97;;;6.63;;
2474;SDS011;1248;48.694;10.160;2022-10-16T06:58:36;18.30;;;6.47;;
2474;SDS011;1248;48.694;10.160;2022-10-16T07:01:04;10.90;;;7.05;;
2474;SDS011;1248;48.694;10.160;2022-10-16T07:03:31;10.20;;;6.97;;
2474;SDS011;1248;48.694;10.160;2022-10-16T07:06:01;8.70;;;6.77;;
2474;SDS011;1248;48.694;10.160;2022-10-16T07:08:31;12.30;;;6.73;;
2474;SDS011;1248;48.694;10.160;2022-10-16T07:10:59;8.63;;;6.30;;
2474;SDS011;1248;48.694;10.160;2022-10-16T07:13:27;9.40;;;6.30;;
2474;SDS011;1248;48.694;10.160;2022-10-16T07:15:54;9.47;;;6.80;;
2474;SDS011;1248;48.694;10.160;2022-10-16T07:18:21;7.33;;;6.50;;
2474;SDS011;1248;48.694;10.160;2022-10-16T07:20:52;15.27;;;7.17;;
2474;SDS011;1248;48.694;10.160;2022-10-16T07:23:19;10.00;;;7.07;;
2474;SDS011;1248;48.694;10.160;2022-10-16T07:25:54;6.57;;;5.73;;
2474;SDS011;1248;48.694;10.160;2022-10-16T07:28:21;11.00;;;6.80;;
2474;SDS011;1248;48.694;10.160;2022-10-16T07:30:48;10.80;;;6.43;;
2474;SDS011;1248;48.694;10.160;2022-10-16T07:33:16;11.90;;;7.37;;
2474;SDS011;1248;48.694;10.160;2022-10-16T07:35:49;10.57;;;6.20;;
2474;SDS011;1248;48.694;10.160;2022-10-16T07:38:17;8.27;;;6.17;;
2474;SDS011;1248;48.694;10.160;2022-10-16T07:40:44;10.23;;;5.73;;
2474;SDS011;1248;48.694;10.160;2022-10-16T07:43:13;8.97;;;5.60;;
2474;SDS011;1248;48.694;10.160;2022-10-16T07:45:46;11.37;;;6.17;;
2474;SDS011;1248;48.694;10.160;2022-10-16T07:48:14;11.73;;;6.37;;
2474;SDS011;1248;48.694;10.160;2022-10-16T07:50:41;7.50;;;6.03;;
2474;SDS011;1248;48.694;10.160;2022-10-16T07:53:08;12.50;;;7.23;;
2474;SDS011;1248;48.694;10.160;2022-10-16T07:55:35;7.43;;;6.60;;
2474;SDS011;1248;48.694;10.160;2022-10-16T07:58:03;8.47;;;6.07;;
2474;SDS011;1248;48.694;10.160;2022-10-16T08:00:31;8.90;;;6.00;;
2474;SDS011;1248;48.694;10.160;2022-10-16T08:02:58;11.00;;;7.60;;
2474;SDS011;1248;48.694;10.160;2022-10-16T08:05:26;10.13;;;7.53;;
2474;SDS011;1248;48.694;10.160;2022-10-16T08:07:55;8.13;;;6.10;;
2474;SDS011;1248;48.694;10.160;2022-10-16T08:10:23;6.80;;;6.10;;
2474;SDS011;1248;48.694;10.160;2022-10-16T08:12:51;7.60;;;6.70;;
2474;SDS011;1248;48.694;10.160;2022-10-16T08:15:19;7.43;;;5.90;;
2474;SDS011;1248;48.694;10.160;2022-10-16T08:17:54;9.20;;;5.60;;
2474;SDS011;1248;48.694;10.160;2022-10-16T08:20:23;8.63;;;5.23;;
2474;SDS011;1248;48.694;10.160;2022-10-16T08:22:50;8.50;;;5.03;;
2474;SDS011;1248;48.694;10.160;2022-10-16T08:25:17;8.53;;;5.33;;
2474;SDS011;1248;48.694;10.160;2022-10-16T08:27:44;7.13;;;5.10;;
2474;SDS011;1248;48.694;10.160;2022-10-16T08:30:11;11.40;;;6.30;;
2474;SDS011;1248;48.694;10.160;2022-10-16T08:32:39;9.40;;;6.10;;
2474;SDS011;1248;48.694;10.160;2022-10-16T08:35:08;8.30;;;5.17;;
2474;SDS011;1248;48.694;10.160;2022-10-16T08:37:35;10.80;;;5.57;;
2474;SDS011;1248;48.694;10.160;2022-10-16T08:40:04;7.83;;;5.10;;
2474;SDS011;1248;48.694;10.160;2022-10-16T08:42:36;8.40;;;5.63;;
2474;SDS011;1248;48.694;10.160;2022-10-16T08:45:19;6.07;;;4.70;;
2474;SDS011;1248;48.694;10.160;2022-10-16T08:47:54;7.53;;;4.60;;
2474;SDS011;1248;48.694;10.160;2022-10-16T08:50:29;7.37;;;4.90;;
2474;SDS011;1248;48.694;10.160;2022-10-16T08:52:57;6.97;;;4.83;;
2474;SDS011;1248;48.694;10.160;2022-10-16T08:55:28;6.10;;;4.40;;
2474;SDS011;1248;48.694;10.160;2022-10-16T08:57:58;6.70;;;4.73;;
2474;SDS011;1248;48.694;10.160;2022-10-16T09:00:26;9.83;;;5.00;;
2474;SDS011;1248;48.694;10.160;2022-10-16T09:02:57;5.03;;;4.20;;
2474;SDS011;1248;48.694;10.160;2022-10-16T09:08:27;6.40;;;4.60;;
2474;SDS011;1248;48.694;10.160;2022-10-16T09:10:57;6.23;;;4.30;;
2474;SDS011;1248;48.694;10.160;2022-10-16T09:13:27;10.37;;;4.70;;
2474;SDS011;1248;48.694;10.160;2022-10-16T09:15:58;4.80;;;4.30;;
2474;SDS011;1248;48.694;10.160;2022-10-16T09:18:32;11.70;;;4.53;;
2474;SDS011;1248;48.694;10.160;2022-10-16T09:21:07;4.67;;;3.70;;
2474;SDS011;1248;48.694;10.160;2022-10-16T09:23:37;5.40;;;3.70;;
2474;SDS011;1248;48.694;10.160;2022-10-16T09:26:05;9.60;;;4.27;;
2474;SDS011;1248;48.694;10.160;2022-10-16T09:28:36;6.23;;;4.80;;
2474;SDS011;1248;48.694;10.160;2022-10-16T09:31:03;4.97;;;3.40;;
2474;SDS011;1248;48.694;10.160;2022-10-16T09:33:30;4.80;;;3.57;;
2474;SDS011;1248;48.694;10.160;2022-10-16T09:36:00;9.47;;;4.63;;
2474;SDS011;1248;48.694;10.160;2022-10-16T09:38:31;6.70;;;3.13;;
2474;SDS011;1248;48.694;10.160;2022-10-16T09:40:59;6.60;;;3.80;;
2474;SDS011;1248;48.694;10.160;2022-10-16T09:43:28;5.03;;;4.00;;
2474;SDS011;1248;48.694;10.160;2022-10-16T09:46:01;11.47;;;4.23;;
2474;SDS011;1248;48.694;10.160;2022-10-16T09:48:31;3.90;;;3.60;;
2474;SDS011;1248;48.694;10.160;2022-10-16T09:51:04;6.30;;;4.23;;
2474;SDS011;1248;48.694;10.160;2022-10-16T09:53:41;8.47;;;4.20;;
2474;SDS011;1248;48.694;10.160;2022-10-16T09:56:09;4.70;;;3.87;;
2474;SDS011;1248;48.694;10.160;2022-10-16T09:58:41;4.00;;;3.43;;
2474;SDS011;1248;48.694;10.160;2022-10-16T10:01:11;7.83;;;4.00;;
2474;SDS011;1248;48.694;10.160;2022-10-16T10:03:40;12.23;;;3.93;;
2474;SDS011;1248;48.694;10.160;2022-10-16T10:06:21;6.27;;;3.33;;
2474;SDS011;1248;48.694;10.160;2022-10-16T10:11:48;4.23;;;3.27;;
2474;SDS011;1248;48.694;10.160;2022-10-16T10:14:24;7.13;;;3.20;;
2474;SDS011;1248;48.694;10.160;2022-10-16T10:17:01;3.80;;;2.70;;
2474;SDS011;1248;48.694;10.160;2022-10-16T10:19:37;7.77;;;3.33;;
2474;SDS011;1248;48.694;10.160;2022-10-16T10:22:13;5.40;;;3.00;;
2474;SDS011;1248;48.694;10.160;2022-10-16T10:24:46;3.43;;;2.63;;
2474;SDS011;1248;48.694;10.160;2022-10-16T10:27:21;3.97;;;2.67;;
2474;SDS011;1248;48.694;10.160;2022-10-16T10:29:53;5.43;;;3.40;;
2474;SDS011;1248;48.694;10.160;2022-10-16T10:32:28;4.83;;;2.17;;
2474;SDS011;1248;48.694;10.160;2022-10-16T10:35:07;3.10;;;2.60;;
2474;SDS011;1248;48.694;10.160;2022-10-16T10:37:45;3.23;;;2.27;;
2474;SDS011;1248;48.694;10.160;2022-10-16T10:40:24;7.60;;;2.47;;
2474;SDS011;1248;48.694;10.160;2022-10-16T10:42:57;6.37;;;2.60;;
2474;SDS011;1248;48.694;10.160;2022-10-16T10:45:27;4.00;;;2.40;;
2474;SDS011;1248;48.694;10.160;2022-10-16T10:48:00;6.87;;;2.57;;
2474;SDS011;1248;48.694;10.160;2022-10-16T10:50:34;4.30;;;1.83;;
2474;SDS011;1248;48.694;10.160;2022-10-16T10:53:06;4.73;;;2.80;;
2474;SDS011;1248;48.694;10.160;2022-10-16T10:55:52;10.17;;;2.60;;
2474;SDS011;1248;48.694;10.160;2022-10-16T11:01:10;8.37;;;2.93;;
2474;SDS011;1248;48.694;10.160;2022-10-16T11:03:48;3.03;;;1.92;;
2474;SDS011;1248;48.694;10.160;2022-10-16T11:06:26;6.17;;;2.20;;
2474;SDS011;1248;48.694;10.160;2022-10-16T11:08:57;5.37;;;1.90;;
2474;SDS011;1248;48.694;10.160;2022-10-16T11:11:30;6.57;;;2.50;;
2474;SDS011;1248;48.694;10.160;2022-10-16T11:14:03;4.20;;;2.30;;
2474;SDS011;1248;48.694;10.160;2022-10-16T11:16:37;8.43;;;2.40;;
2474;SDS011;1248;48.694;10.160;2022-10-16T11:19:10;7.47;;;2.20;;
2474;SDS011;1248;48.694;10.160;2022-10-16T11:21:41;5.00;;;1.83;;
2474;SDS011;1248;48.694;10.160;2022-10-16T11:24:15;2.27;;;1.70;;
2474;SDS011;1248;48.694;10.160;2022-10-16T11:26:47;3.00;;;2.00;;
2474;SDS011;1248;48.694;10.160;2022-10-16T11:29:16;7.53;;;2.00;;
2474;SDS011;1248;48.694;10.160;2022-10-16T11:31:46;2.67;;;2.07;;
2474;SDS011;1248;48.694;10.160;2022-10-16T11:34:17;3.83;;;1.87;;
2474;SDS011;1248;48.694;10.160;2022-10-16T11:36:50;1.53;;;1.43;;
2474;SDS011;1248;48.694;10.160;2022-10-16T11:39:21;3.87;;;1.67;;
2474;SDS011;1248;48.694;10.160;2022-10-16T11:41:51;3.90;;;1.80;;
2474;SDS011;1248;48.694;10.160;2022-10-16T11:44:25;10.00;;;2.43;;
2474;SDS011;1248;48.694;10.160;2022-10-16T11:47:03;1.97;;;1.40;;
2474;SDS011;1248;48.694;10.160;2022-10-16T11:49:36;5.67;;;2.20;;
2474;SDS011;1248;48.694;10.160;2022-10-16T11:52:06;2.60;;;1.57;;
2474;SDS011;1248;48.694;10.160;2022-10-16T11:54:39;5.80;;;1.73;;
2474;SDS011;1248;48.694;10.160;2022-10-16T11:57:14;5.53;;;1.67;;
2474;SDS011;1248;48.694;10.160;2022-10-16T11:59:45;2.50;;;2.00;;
2474;SDS011;1248;48.694;10.160;2022-10-16T12:02:26;7.20;;;1.70;;
2474;SDS011;1248;48.694;10.160;2022-10-16T12:05:01;4.50;;;1.50;;
2474;SDS011;1248;48.694;10.160;2022-10-16T12:07:34;7.50;;;2.13;;
2474;SDS011;1248;48.694;10.160;2022-10-16T12:10:10;3.33;;;1.67;;
2474;SDS011;1248;48.694;10.160;2022-10-16T12:12:39;4.60;;;1.60;;
2474;SDS011;1248;48.694;10.160;2022-10-16T12:15:18;2.07;;;1.50;;
2474;SDS011;1248;48.694;10.160;2022-10-16T12:17:48;3.80;;;1.57;;
2474;SDS011;1248;48.694;10.160;2022-10-16T12:20:23;3.80;;;1.60;;
2474;SDS011;1248;48.694;10.160;2022-10-16T12:22:53;1.70;;;1.60;;
2474;SDS011;1248;48.694;10.160;2022-10-16T12:25:22;2.93;;;1.57;;
2474;SDS011;1248;48.694;10.160;2022-10-16T12:27:57;1.90;;;1.73;;
2474;SDS011;1248;48.694;10.160;2022-10-16T12:30:29;3.40;;;1.90;;
2474;SDS011;1248;48.694;10.160;2022-10-16T12:32:58;3.40;;;2.13;;
2474;SDS011;1248;48.694;10.160;2022-10-16T12:35:28;2.87;;;1.70;;
2474;SDS011;1248;48.694;10.160;2022-10-16T12:38:07;2.37;;;1.60;;
2474;SDS011;1248;48.694;10.160;2022-10-16T12:40:39;3.53;;;1.50;;
2474;SDS011;1248;48.694;10.160;2022-10-16T12:43:23;4.53;;;1.40;;
2474;SDS011;1248;48.694;10.160;2022-10-16T12:45:59;3.87;;;1.70;;
2474;SDS011;1248;48.694;10.160;2022-10-16T12:48:28;3.27;;;1.87;;
2474;SDS011;1248;48.694;10.160;2022-10-16T12:50:55;2.47;;;1.63;;
2474;SDS011;1248;48.694;10.160;2022-10-16T12:53:23;5.43;;;1.87;;
2474;SDS011;1248;48.694;10.160;2022-10-16T12:56:00;2.40;;;1.67;;
2474;SDS011;1248;48.694;10.160;2022-10-16T12:58:35;5.40;;;1.80;;
2474;SDS011;1248;48.694;10.160;2022-10-16T13:01:15;1.87;;;1.33;;
2474;SDS011;1248;48.694;10.160;2022-10-16T13:04:09;4.33;;;2.00;;
2474;SDS011;1248;48.694;10.160;2022-10-16T13:06:42;3.03;;;1.87;;
2474;SDS011;1248;48.694;10.160;2022-10-16T13:09:17;4.33;;;1.90;;
2474;SDS011;1248;48.694;10.160;2022-10-16T13:11:52;3.77;;;1.50;;
2474;SDS011;1248;48.694;10.160;2022-10-16T13:14:49;3.50;;;1.80;;
2474;SDS011;1248;48.694;10.160;2022-10-16T13:17:25;4.57;;;2.00;;
2474;SDS011;1248;48.694;10.160;2022-10-16T13:19:59;3.67;;;1.73;;
2474;SDS011;1248;48.694;10.160;2022-10-16T13:22:35;2.83;;;1.70;;
2474;SDS011;1248;48.694;10.160;2022-10-16T13:25:13;2.77;;;1.63;;
2474;SDS011;1248;48.694;10.160;2022-10-16T13:27:46;1.73;;;1.60;;
2474;SDS011;1248;48.694;10.160;2022-10-16T13:30:21;5.80;;;2.13;;
2474;SDS011;1248;48.694;10.160;2022-10-16T13:32:54;5.73;;;1.73;;
2474;SDS011;1248;48.694;10.160;2022-10-16T13:35:26;4.20;;;1.47;;
2474;SDS011;1248;48.694;10.160;2022-10-16T13:38:04;2.97;;;1.73;;
2474;SDS011;1248;48.694;10.160;2022-10-16T13:40:33;2.43;;;1.37;;
2474;SDS011;1248;48.694;10.160;2022-10-16T13:43:00;2.13;;;1.40;;
2474;SDS011;1248;48.694;10.160;2022-10-16T13:45:29;2.97;;;1.30;;
2474;SDS011;1248;48.694;10.160;2022-10-16T13:48:02;1.93;;;1.30;;
2474;SDS011;1248;48.694;10.160;2022-10-16T13:50:30;3.43;;;1.70;;
2474;SDS011;1248;48.694;10.160;2022-10-16T13:53:03;2.20;;;1.47;;
2474;SDS011;1248;48.694;10.160;2022-10-16T13:55:31;2.13;;;1.60;;
2474;SDS011;1248;48.694;10.160;2022-10-16T13:58:04;1.30;;;1.20;;
2474;SDS011;1248;48.694;10.160;2022-10-16T14:00:33;2.47;;;1.50;;
2474;SDS011;1248;48.694;10.160;2022-10-16T14:03:02;1.70;;;1.60;;
2474;SDS011;1248;48.694;10.160;2022-10-16T14:05:30;2.10;;;1.50;;
2474;SDS011;1248;48.694;10.160;2022-10-16T14:07:58;3.70;;;1.20;;
2474;SDS011;1248;48.694;10.160;2022-10-16T14:10:26;2.10;;;1.53;;
2474;SDS011;1248;48.694;10.160;2022-10-16T14:12:56;4.00;;;1.63;;
2474;SDS011;1248;48.694;10.160;2022-10-16T14:15:24;4.50;;;1.70;;
2474;SDS011;1248;48.694;10.160;2022-10-16T14:17:52;3.80;;;1.73;;
2474;SDS011;1248;48.694;10.160;2022-10-16T14:20:20;1.80;;;1.30;;
2474;SDS011;1248;48.694;10.160;2022-10-16T14:22:58;3.00;;;1.40;;
2474;SDS011;1248;48.694;10.160;2022-10-16T14:25:27;2.07;;;1.63;;
2474;SDS011;1248;48.694;10.160;2022-10-16T14:27:58;3.60;;;1.67;;
2474;SDS011;1248;48.694;10.160;2022-10-16T14:30:27;2.73;;;1.27;;
2474;SDS011;1248;48.694;10.160;2022-10-16T14:32:57;5.60;;;2.07;;
2474;SDS011;1248;48.694;10.160;2022-10-16T14:35:27;5.13;;;1.70;;
2474;SDS011;1248;48.694;10.160;2022-10-16T14:37:56;1.90;;;1.53;;
2474;SDS011;1248;48.694;10.160;2022-10-16T14:40:25;3.53;;;1.70;;
2474;SDS011;1248;48.694;10.160;2022-10-16T14:42:53;5.53;;;1.60;;
2474;SDS011;1248;48.694;10.160;2022-10-16T14:45:21;3.10;;;1.80;;
2474;SDS011;1248;48.694;10.160;2022-10-16T14:47:49;3.10;;;1.50;;
2474;SDS011;1248;48.694;10.160;2022-10-16T14:50:19;4.30;;;1.90;;
2474;SDS011;1248;48.694;10.160;2022-10-16T14:52:46;3.83;;;1.47;;
2474;SDS011;1248;48.694;10.160;2022-10-16T14:55:13;4.73;;;1.70;;
2474;SDS011;1248;48.694;10.160;2022-10-16T14:57:40;4.43;;;1.60;;
2474;SDS011;1248;48.694;10.160;2022-10-16T15:00:10;3.97;;;1.70;;
2474;SDS011;1248;48.694;10.160;2022-10-16T15:02:42;5.33;;;2.03;;
2474;SDS011;1248;48.694;10.160;2022-10-16T15:05:13;2.87;;;1.40;;
2474;SDS011;1248;48.694;10.160;2022-10-16T15:07:43;6.80;;;1.57;;
2474;SDS011;1248;48.694;10.160;2022-10-16T15:10:11;3.77;;;1.50;;
2474;SDS011;1248;48.694;10.160;2022-10-16T15:12:38;1.93;;;1.50;;
2474;SDS011;1248;48.694;10.160;2022-10-16T15:15:24;2.60;;;1.70;;
2474;SDS011;1248;48.694;10.160;2022-10-16T15:17:55;3.17;;;1.70;;
2474;SDS011;1248;48.694;10.160;2022-10-16T15:20:22;4.90;;;2.17;;